F/V Santimax — FJWM — position and weather

sailwx.info

Track history (hours):
 
Tides and Currents Weather Stations Pressure Air Temp Water Temp Dewpoint Dewpoint Depression Visibility Wind Speed Wind Dir Waves Ship Positions

F/V Santimax

Last reported at 2018-Jun-21 09:00 UTC. Time now 2018-Jun-21 16:29 UTC.
Position N 47°40' W 003°27'.

Length 15 m.

Type: Fishing. MMSI: 228122900.

Date/timePositionNaut miles runAvg speedWind from/ knotsBaromVisibWave heightAir tempDewpointWater temp
2018-Jun-21 09:00N 47°40' W 003°27'4 8.4
2018-Jun-21 08:30N 47°43' W 003°22'1 1.7
2018-Jun-21 07:58N 47°44' W 003°22'0 0.0
2018-Jun-21 07:28N 47°44' W 003°22'0 0.0
2018-Jun-21 06:58N 47°44' W 003°22'0 0.0
2018-Jun-21 06:28N 47°44' W 003°22'0 0.0
2018-Jun-21 05:58N 47°44' W 003°22'0 0.0
2018-Jun-21 05:28N 47°44' W 003°22'0 0.0
2018-Jun-21 04:58N 47°44' W 003°22'0 0.0
2018-Jun-21 04:28N 47°44' W 003°22'0 0.0
2018-Jun-21 03:58N 47°44' W 003°22'0 0.0
2018-Jun-21 03:28N 47°44' W 003°22'0 0.0
2018-Jun-21 02:58N 47°44' W 003°22'0 0.0
2018-Jun-21 02:28N 47°44' W 003°22'0 0.0
2018-Jun-21 01:58N 47°44' W 003°22'0 0.0
2018-Jun-21 01:28N 47°44' W 003°22'0 0.2
2018-Jun-21 01:00N 47°44' W 003°22'0 0.4
2018-Jun-21 00:30N 47°44' W 003°22'0 0.0
2018-Jun-21 00:00N 47°44' W 003°22'1 2.1
2018-Jun-20 23:30N 47°43' W 003°22'4 7.6
2018-Jun-20 23:00N 47°41' W 003°27'16 4.5
2018-Jun-20 19:31N 47°32' W 003°46'0 3.9
2018-Jun-20 19:30N 47°32' W 003°46'14 0.3
2018-Jun-19 01:56N 47°35' W 003°26'4 9.0
2018-Jun-19 01:30N 47°38' W 003°23'5 9.2
2018-Jun-19 01:00N 47°43' W 003°22'1 1.9
2018-Jun-19 00:28N 47°44' W 003°22'3 6.8
2018-Jun-19 00:00N 47°41' W 003°22'4 8.1
2018-Jun-18 23:29N 47°37' W 003°24'4 7.7
2018-Jun-18 23:00N 47°34' W 003°27'4 8.5
2018-Jun-18 22:30N 47°31' W 003°32'10 0.4
2018-Jun-18 00:53N 47°40' W 003°27'3 8.8
2018-Jun-18 00:30N 47°42' W 003°23'2 4.2
2018-Jun-17 23:59N 47°44' W 003°22'0 0.4
2018-Jun-17 23:28N 47°44' W 003°22'0 0.0
2018-Jun-17 22:58N 47°44' W 003°22'0 0.0
2018-Jun-17 22:28N 47°44' W 003°22'0 0.0
2018-Jun-17 21:59N 47°44' W 003°22'0 0.0
2018-Jun-17 21:28N 47°44' W 003°22'0 0.0
2018-Jun-17 20:58N 47°44' W 003°22'0 0.0
2018-Jun-17 20:28N 47°44' W 003°22'0 0.0
2018-Jun-17 19:58N 47°44' W 003°22'0 0.0
2018-Jun-17 19:25N 47°44' W 003°22'0 0.0
2018-Jun-17 18:58N 47°44' W 003°22'0 0.0
2018-Jun-17 18:29N 47°44' W 003°22'0 0.0
2018-Jun-17 17:55N 47°44' W 003°22'0 0.0
2018-Jun-17 17:29N 47°44' W 003°22'0 0.0
2018-Jun-17 16:59N 47°44' W 003°22'0 0.0
2018-Jun-17 16:29N 47°44' W 003°22'0 0.0
2018-Jun-17 15:59N 47°44' W 003°22'0 0.0
2018-Jun-17 15:29N 47°44' W 003°22'0 0.0
2018-Jun-17 14:59N 47°44' W 003°22'0 0.0
2018-Jun-17 14:29N 47°44' W 003°22'0 0.0
2018-Jun-17 13:56N 47°44' W 003°22'0 0.0
2018-Jun-17 13:29N 47°44' W 003°22'0 0.0
2018-Jun-17 12:59N 47°44' W 003°22'0 0.0
2018-Jun-17 12:29N 47°44' W 003°22'0 0.0
2018-Jun-17 11:59N 47°44' W 003°22'0 0.0
2018-Jun-17 11:29N 47°44' W 003°22'0 0.0
2018-Jun-17 10:59N 47°44' W 003°22'0 0.0
2018-Jun-17 10:29N 47°44' W 003°22'0 0.0
2018-Jun-17 09:59N 47°44' W 003°22'0 0.0
2018-Jun-17 09:29N 47°44' W 003°22'0 0.0
2018-Jun-17 08:59N 47°44' W 003°22'0 0.0
2018-Jun-17 08:29N 47°44' W 003°22'0 0.0
2018-Jun-17 07:59N 47°44' W 003°22'0 0.0
2018-Jun-17 07:29N 47°44' W 003°22'0 0.0
2018-Jun-17 06:59N 47°44' W 003°22'0 0.0
2018-Jun-17 06:29N 47°44' W 003°22'0 0.0
2018-Jun-17 05:59N 47°44' W 003°22'0 0.0
2018-Jun-17 05:28N 47°44' W 003°22'0 0.0
2018-Jun-17 04:58N 47°44' W 003°22'0 0.0
2018-Jun-17 04:29N 47°44' W 003°22'0 0.0
2018-Jun-17 03:58N 47°44' W 003°22'0 0.0
2018-Jun-17 03:26N 47°44' W 003°22'0 0.0
2018-Jun-17 02:58N 47°44' W 003°22'0 0.0
2018-Jun-17 02:28N 47°44' W 003°22'0 0.0
2018-Jun-17 01:58N 47°44' W 003°22'0 0.0
2018-Jun-17 01:28N 47°44' W 003°22'0 0.0
2018-Jun-17 00:58N 47°44' W 003°22'0 0.0
2018-Jun-17 00:28N 47°44' W 003°22'0 0.0
2018-Jun-16 23:55N 47°44' W 003°22'0 0.0
2018-Jun-16 23:28N 47°44' W 003°22'0 0.0
2018-Jun-16 22:58N 47°44' W 003°22'0 0.0
2018-Jun-16 22:28N 47°44' W 003°22'0 0.0
2018-Jun-16 21:58N 47°44' W 003°22'0 0.0
2018-Jun-16 21:28N 47°44' W 003°22'0 0.0
2018-Jun-16 20:58N 47°44' W 003°22'0 0.0
2018-Jun-16 20:28N 47°44' W 003°22'0 0.0
2018-Jun-16 19:58N 47°44' W 003°22'0 0.0
2018-Jun-16 19:28N 47°44' W 003°22'0 0.0
2018-Jun-16 18:58N 47°44' W 003°22'0 0.0
2018-Jun-16 18:25N 47°44' W 003°22'0 0.0
2018-Jun-16 17:58N 47°44' W 003°22'0 0.0
2018-Jun-16 17:28N 47°44' W 003°22'0 0.0
2018-Jun-16 16:58N 47°44' W 003°22'0 0.0
2018-Jun-16 16:28N 47°44' W 003°22'0 0.0
2018-Jun-16 15:58N 47°44' W 003°22'0 0.0
2018-Jun-16 15:28N 47°44' W 003°22'0 0.0
2018-Jun-16 14:58N 47°44' W 003°22'0 0.0
2018-Jun-16 14:28N 47°44' W 003°22'0 0.0
2018-Jun-16 13:58N 47°44' W 003°22'0 0.0
2018-Jun-16 13:28N 47°44' W 003°22'0 0.0
2018-Jun-16 12:58N 47°44' W 003°22'0 0.0
2018-Jun-16 12:28N 47°44' W 003°22'0 0.0
2018-Jun-16 11:58N 47°44' W 003°22'0 0.0
2018-Jun-16 11:28N 47°44' W 003°22'0 0.0
2018-Jun-16 10:58N 47°44' W 003°22'0 0.0
2018-Jun-16 10:28N 47°44' W 003°22'0 0.0
2018-Jun-16 09:58N 47°44' W 003°22'0 0.0
2018-Jun-16 09:29N 47°44' W 003°22'0 0.0
2018-Jun-16 08:58N 47°44' W 003°22'0 0.0
2018-Jun-16 08:28N 47°44' W 003°22'0 0.0
2018-Jun-16 07:58N 47°44' W 003°22'0 0.0
2018-Jun-16 07:28N 47°44' W 003°22'0 0.0
2018-Jun-16 06:58N 47°44' W 003°22'0 0.0
2018-Jun-16 06:29N 47°44' W 003°22'0 0.0
2018-Jun-16 05:59N 47°44' W 003°22'0 0.0
2018-Jun-16 05:29N 47°44' W 003°22'0 0.0
2018-Jun-16 04:59N 47°44' W 003°22'0 0.0
2018-Jun-16 04:29N 47°44' W 003°22'0 0.0
2018-Jun-16 03:59N 47°44' W 003°22'0 0.0
2018-Jun-16 03:29N 47°44' W 003°22'0 0.0
2018-Jun-16 02:59N 47°44' W 003°22'0 0.0
2018-Jun-16 02:29N 47°44' W 003°22'0 0.0
2018-Jun-16 01:59N 47°44' W 003°22'0 0.0
2018-Jun-16 01:29N 47°44' W 003°22'0 0.0
2018-Jun-16 00:59N 47°44' W 003°22'3 5.4
2018-Jun-16 00:30N 47°41' W 003°23'4 8.9
2018-Jun-16 00:00N 47°40' W 003°30'7 0.1
2018-Jun-14 00:44N 47°35' W 003°24'2 7.9
2018-Jun-14 00:29N 47°36' W 003°23'4 8.7
2018-Jun-13 23:59N 47°41' W 003°22'3 3.5
2018-Jun-13 23:08N 47°44' W 003°22'0 1.1
2018-Jun-13 22:59N 47°44' W 003°22'0 0.0
2018-Jun-13 22:29N 47°44' W 003°22'0 0.0
2018-Jun-13 21:59N 47°44' W 003°22'0 0.0
2018-Jun-13 21:29N 47°44' W 003°22'0 0.0
2018-Jun-13 20:59N 47°44' W 003°22'0 0.0
2018-Jun-13 20:29N 47°44' W 003°22'0 0.0
2018-Jun-13 19:59N 47°44' W 003°22'0 0.0
2018-Jun-13 19:29N 47°44' W 003°22'0 0.0
2018-Jun-13 18:59N 47°44' W 003°22'0 0.0
2018-Jun-13 18:29N 47°44' W 003°22'0 0.0
2018-Jun-13 17:59N 47°44' W 003°22'0 0.0
2018-Jun-13 17:29N 47°44' W 003°22'0 0.0
2018-Jun-13 16:59N 47°44' W 003°22'0 0.0
2018-Jun-13 16:26N 47°44' W 003°22'0 0.0
2018-Jun-13 15:59N 47°44' W 003°22'0 0.0
2018-Jun-13 15:29N 47°44' W 003°22'0 0.0
2018-Jun-13 14:59N 47°44' W 003°22'0 0.0
2018-Jun-13 14:29N 47°44' W 003°22'0 0.0
2018-Jun-13 13:59N 47°44' W 003°22'0 0.0
2018-Jun-13 13:29N 47°44' W 003°22'0 0.0
2018-Jun-13 12:59N 47°44' W 003°22'0 0.0
2018-Jun-13 12:29N 47°44' W 003°22'0 0.0
2018-Jun-13 11:59N 47°44' W 003°22'0 0.1
2018-Jun-13 11:29N 47°44' W 003°22'0 0.0
2018-Jun-13 10:59N 47°44' W 003°22'0 0.0
2018-Jun-13 10:29N 47°44' W 003°22'0 0.0
2018-Jun-13 09:59N 47°44' W 003°22'0 0.0
2018-Jun-13 09:29N 47°44' W 003°22'0 0.0
2018-Jun-13 08:59N 47°44' W 003°22'0 0.0
2018-Jun-13 08:29N 47°44' W 003°22'0 0.0
2018-Jun-13 07:59N 47°44' W 003°22'0 0.0
2018-Jun-13 07:26N 47°44' W 003°22'0 0.0
2018-Jun-13 06:59N 47°44' W 003°22'0 0.0
2018-Jun-13 06:29N 47°44' W 003°22'0 0.0
2018-Jun-13 05:59N 47°44' W 003°22'0 0.0
2018-Jun-13 05:29N 47°44' W 003°22'0 0.0
2018-Jun-13 04:59N 47°44' W 003°22'0 0.0
2018-Jun-13 04:29N 47°44' W 003°22'0 0.0
2018-Jun-13 03:59N 47°44' W 003°22'0 0.0
2018-Jun-13 03:29N 47°44' W 003°22'0 0.0
2018-Jun-13 02:59N 47°44' W 003°22'0 0.0
2018-Jun-13 02:29N 47°44' W 003°22'0 0.0
2018-Jun-13 01:59N 47°44' W 003°22'0 0.0
2018-Jun-13 01:29N 47°44' W 003°22'0 0.1
2018-Jun-13 00:59N 47°44' W 003°22'0 0.0
2018-Jun-13 00:29N 47°44' W 003°22'2 3.8
2018-Jun-13 00:00N 47°42' W 003°22'5 8.8
2018-Jun-12 23:29N 47°37' W 003°23'4 8.7
2018-Jun-12 23:00N 47°33' W 003°25'4 8.9
2018-Jun-12 22:30N 47°29' W 003°27'4 8.5
2018-Jun-12 21:59N 47°26' W 003°31'8 0.4
2018-Jun-12 00:49N 47°33' W 003°25'3 8.2
2018-Jun-12 00:30N 47°35' W 003°23'4 8.4
2018-Jun-12 00:00N 47°39' W 003°22'4 8.7
2018-Jun-11 23:30N 47°44' W 003°22'0 0.3
2018-Jun-11 22:59N 47°44' W 003°22'4 8.0
2018-Jun-11 22:30N 47°41' W 003°26'5 8.7
2018-Jun-11 21:58N 47°40' W 003°32'  
Track history (hours):
 
Tides and Currents Weather Stations Pressure Air Temp Water Temp Dewpoint Dewpoint Depression Visibility Wind Speed Wind Dir Waves Ship Positions

F/V Santimax

Last reported at 2018-Jun-21 09:00 UTC. Time now 2018-Jun-21 16:29 UTC.
Position N 47°40' W 003°27'.

Length 15 m.

Type: Fishing. MMSI: 228122900.

Date/timePositionNaut miles runAvg speedWind from/ knotsBaromVisibWave heightAir tempDewpointWater temp
2018-Jun-21 09:00N 47°40' W 003°27'4 8.4
2018-Jun-21 08:30N 47°43' W 003°22'1 1.7
2018-Jun-21 07:58N 47°44' W 003°22'0 0.0
2018-Jun-21 07:28N 47°44' W 003°22'0 0.0
2018-Jun-21 06:58N 47°44' W 003°22'0 0.0
2018-Jun-21 06:28N 47°44' W 003°22'0 0.0
2018-Jun-21 05:58N 47°44' W 003°22'0 0.0
2018-Jun-21 05:28N 47°44' W 003°22'0 0.0
2018-Jun-21 04:58N 47°44' W 003°22'0 0.0
2018-Jun-21 04:28N 47°44' W 003°22'0 0.0
2018-Jun-21 03:58N 47°44' W 003°22'0 0.0
2018-Jun-21 03:28N 47°44' W 003°22'0 0.0
2018-Jun-21 02:58N 47°44' W 003°22'0 0.0
2018-Jun-21 02:28N 47°44' W 003°22'0 0.0
2018-Jun-21 01:58N 47°44' W 003°22'0 0.0
2018-Jun-21 01:28N 47°44' W 003°22'0 0.2
2018-Jun-21 01:00N 47°44' W 003°22'0 0.4
2018-Jun-21 00:30N 47°44' W 003°22'0 0.0
2018-Jun-21 00:00N 47°44' W 003°22'1 2.1
2018-Jun-20 23:30N 47°43' W 003°22'4 7.6
2018-Jun-20 23:00N 47°41' W 003°27'16 4.5
2018-Jun-20 19:31N 47°32' W 003°46'0 3.9
2018-Jun-20 19:30N 47°32' W 003°46'14 0.3
2018-Jun-19 01:56N 47°35' W 003°26'4 9.0
2018-Jun-19 01:30N 47°38' W 003°23'5 9.2
2018-Jun-19 01:00N 47°43' W 003°22'1 1.9
2018-Jun-19 00:28N 47°44' W 003°22'3 6.8
2018-Jun-19 00:00N 47°41' W 003°22'4 8.1
2018-Jun-18 23:29N 47°37' W 003°24'4 7.7
2018-Jun-18 23:00N 47°34' W 003°27'4 8.5
2018-Jun-18 22:30N 47°31' W 003°32'10 0.4
2018-Jun-18 00:53N 47°40' W 003°27'3 8.8
2018-Jun-18 00:30N 47°42' W 003°23'2 4.2
2018-Jun-17 23:59N 47°44' W 003°22'0 0.4
2018-Jun-17 23:28N 47°44' W 003°22'0 0.0
2018-Jun-17 22:58N 47°44' W 003°22'0 0.0
2018-Jun-17 22:28N 47°44' W 003°22'0 0.0
2018-Jun-17 21:59N 47°44' W 003°22'0 0.0
2018-Jun-17 21:28N 47°44' W 003°22'0 0.0
2018-Jun-17 20:58N 47°44' W 003°22'0 0.0
2018-Jun-17 20:28N 47°44' W 003°22'0 0.0
2018-Jun-17 19:58N 47°44' W 003°22'0 0.0
2018-Jun-17 19:25N 47°44' W 003°22'0 0.0
2018-Jun-17 18:58N 47°44' W 003°22'0 0.0
2018-Jun-17 18:29N 47°44' W 003°22'0 0.0
2018-Jun-17 17:55N 47°44' W 003°22'0 0.0
2018-Jun-17 17:29N 47°44' W 003°22'0 0.0
2018-Jun-17 16:59N 47°44' W 003°22'0 0.0
2018-Jun-17 16:29N 47°44' W 003°22'0 0.0
2018-Jun-17 15:59N 47°44' W 003°22'0 0.0
2018-Jun-17 15:29N 47°44' W 003°22'0 0.0
2018-Jun-17 14:59N 47°44' W 003°22'0 0.0
2018-Jun-17 14:29N 47°44' W 003°22'0 0.0
2018-Jun-17 13:56N 47°44' W 003°22'0 0.0
2018-Jun-17 13:29N 47°44' W 003°22'0 0.0
2018-Jun-17 12:59N 47°44' W 003°22'0 0.0
2018-Jun-17 12:29N 47°44' W 003°22'0 0.0
2018-Jun-17 11:59N 47°44' W 003°22'0 0.0
2018-Jun-17 11:29N 47°44' W 003°22'0 0.0
2018-Jun-17 10:59N 47°44' W 003°22'0 0.0
2018-Jun-17 10:29N 47°44' W 003°22'0 0.0
2018-Jun-17 09:59N 47°44' W 003°22'0 0.0
2018-Jun-17 09:29N 47°44' W 003°22'0 0.0
2018-Jun-17 08:59N 47°44' W 003°22'0 0.0
2018-Jun-17 08:29N 47°44' W 003°22'0 0.0
2018-Jun-17 07:59N 47°44' W 003°22'0 0.0
2018-Jun-17 07:29N 47°44' W 003°22'0 0.0
2018-Jun-17 06:59N 47°44' W 003°22'0 0.0
2018-Jun-17 06:29N 47°44' W 003°22'0 0.0
2018-Jun-17 05:59N 47°44' W 003°22'0 0.0
2018-Jun-17 05:28N 47°44' W 003°22'0 0.0
2018-Jun-17 04:58N 47°44' W 003°22'0 0.0
2018-Jun-17 04:29N 47°44' W 003°22'0 0.0
2018-Jun-17 03:58N 47°44' W 003°22'0 0.0
2018-Jun-17 03:26N 47°44' W 003°22'0 0.0
2018-Jun-17 02:58N 47°44' W 003°22'0 0.0
2018-Jun-17 02:28N 47°44' W 003°22'0 0.0
2018-Jun-17 01:58N 47°44' W 003°22'0 0.0
2018-Jun-17 01:28N 47°44' W 003°22'0 0.0
2018-Jun-17 00:58N 47°44' W 003°22'0 0.0
2018-Jun-17 00:28N 47°44' W 003°22'0 0.0
2018-Jun-16 23:55N 47°44' W 003°22'0 0.0
2018-Jun-16 23:28N 47°44' W 003°22'0 0.0
2018-Jun-16 22:58N 47°44' W 003°22'0 0.0
2018-Jun-16 22:28N 47°44' W 003°22'0 0.0
2018-Jun-16 21:58N 47°44' W 003°22'0 0.0
2018-Jun-16 21:28N 47°44' W 003°22'0 0.0
2018-Jun-16 20:58N 47°44' W 003°22'0 0.0
2018-Jun-16 20:28N 47°44' W 003°22'0 0.0
2018-Jun-16 19:58N 47°44' W 003°22'0 0.0
2018-Jun-16 19:28N 47°44' W 003°22'0 0.0
2018-Jun-16 18:58N 47°44' W 003°22'0 0.0
2018-Jun-16 18:25N 47°44' W 003°22'0 0.0
2018-Jun-16 17:58N 47°44' W 003°22'0 0.0
2018-Jun-16 17:28N 47°44' W 003°22'0 0.0
2018-Jun-16 16:58N 47°44' W 003°22'0 0.0
2018-Jun-16 16:28N 47°44' W 003°22'0 0.0
2018-Jun-16 15:58N 47°44' W 003°22'0 0.0
2018-Jun-16 15:28N 47°44' W 003°22'0 0.0
2018-Jun-16 14:58N 47°44' W 003°22'0 0.0
2018-Jun-16 14:28N 47°44' W 003°22'0 0.0
2018-Jun-16 13:58N 47°44' W 003°22'0 0.0
2018-Jun-16 13:28N 47°44' W 003°22'0 0.0
2018-Jun-16 12:58N 47°44' W 003°22'0 0.0
2018-Jun-16 12:28N 47°44' W 003°22'0 0.0
2018-Jun-16 11:58N 47°44' W 003°22'0 0.0
2018-Jun-16 11:28N 47°44' W 003°22'0 0.0
2018-Jun-16 10:58N 47°44' W 003°22'0 0.0
2018-Jun-16 10:28N 47°44' W 003°22'0 0.0
2018-Jun-16 09:58N 47°44' W 003°22'0 0.0
2018-Jun-16 09:29N 47°44' W 003°22'0 0.0
2018-Jun-16 08:58N 47°44' W 003°22'0 0.0
2018-Jun-16 08:28N 47°44' W 003°22'0 0.0
2018-Jun-16 07:58N 47°44' W 003°22'0 0.0
2018-Jun-16 07:28N 47°44' W 003°22'0 0.0
2018-Jun-16 06:58N 47°44' W 003°22'0 0.0
2018-Jun-16 06:29N 47°44' W 003°22'0 0.0
2018-Jun-16 05:59N 47°44' W 003°22'0 0.0
2018-Jun-16 05:29N 47°44' W 003°22'0 0.0
2018-Jun-16 04:59N 47°44' W 003°22'0 0.0
2018-Jun-16 04:29N 47°44' W 003°22'0 0.0
2018-Jun-16 03:59N 47°44' W 003°22'0 0.0
2018-Jun-16 03:29N 47°44' W 003°22'0 0.0
2018-Jun-16 02:59N 47°44' W 003°22'0 0.0
2018-Jun-16 02:29N 47°44' W 003°22'0 0.0
2018-Jun-16 01:59N 47°44' W 003°22'0 0.0
2018-Jun-16 01:29N 47°44' W 003°22'0 0.0
2018-Jun-16 00:59N 47°44' W 003°22'3 5.4
2018-Jun-16 00:30N 47°41' W 003°23'4 8.9
2018-Jun-16 00:00N 47°40' W 003°30'7 0.1
2018-Jun-14 00:44N 47°35' W 003°24'2 7.9
2018-Jun-14 00:29N 47°36' W 003°23'4 8.7
2018-Jun-13 23:59N 47°41' W 003°22'3 3.5
2018-Jun-13 23:08N 47°44' W 003°22'0 1.1
2018-Jun-13 22:59N 47°44' W 003°22'0 0.0
2018-Jun-13 22:29N 47°44' W 003°22'0 0.0
2018-Jun-13 21:59N 47°44' W 003°22'0 0.0
2018-Jun-13 21:29N 47°44' W 003°22'0 0.0
2018-Jun-13 20:59N 47°44' W 003°22'0 0.0
2018-Jun-13 20:29N 47°44' W 003°22'0 0.0
2018-Jun-13 19:59N 47°44' W 003°22'0 0.0
2018-Jun-13 19:29N 47°44' W 003°22'0 0.0
2018-Jun-13 18:59N 47°44' W 003°22'0 0.0
2018-Jun-13 18:29N 47°44' W 003°22'0 0.0
2018-Jun-13 17:59N 47°44' W 003°22'0 0.0
2018-Jun-13 17:29N 47°44' W 003°22'0 0.0
2018-Jun-13 16:59N 47°44' W 003°22'0 0.0
2018-Jun-13 16:26N 47°44' W 003°22'0 0.0
2018-Jun-13 15:59N 47°44' W 003°22'0 0.0
2018-Jun-13 15:29N 47°44' W 003°22'0 0.0
2018-Jun-13 14:59N 47°44' W 003°22'0 0.0
2018-Jun-13 14:29N 47°44' W 003°22'0 0.0
2018-Jun-13 13:59N 47°44' W 003°22'0 0.0
2018-Jun-13 13:29N 47°44' W 003°22'0 0.0
2018-Jun-13 12:59N 47°44' W 003°22'0 0.0
2018-Jun-13 12:29N 47°44' W 003°22'0 0.0
2018-Jun-13 11:59N 47°44' W 003°22'0 0.1
2018-Jun-13 11:29N 47°44' W 003°22'0 0.0
2018-Jun-13 10:59N 47°44' W 003°22'0 0.0
2018-Jun-13 10:29N 47°44' W 003°22'0 0.0
2018-Jun-13 09:59N 47°44' W 003°22'0 0.0
2018-Jun-13 09:29N 47°44' W 003°22'0 0.0
2018-Jun-13 08:59N 47°44' W 003°22'0 0.0
2018-Jun-13 08:29N 47°44' W 003°22'0 0.0
2018-Jun-13 07:59N 47°44' W 003°22'0 0.0
2018-Jun-13 07:26N 47°44' W 003°22'0 0.0
2018-Jun-13 06:59N 47°44' W 003°22'0 0.0
2018-Jun-13 06:29N 47°44' W 003°22'0 0.0
2018-Jun-13 05:59N 47°44' W 003°22'0 0.0
2018-Jun-13 05:29N 47°44' W 003°22'0 0.0
2018-Jun-13 04:59N 47°44' W 003°22'0 0.0
2018-Jun-13 04:29N 47°44' W 003°22'0 0.0
2018-Jun-13 03:59N 47°44' W 003°22'0 0.0
2018-Jun-13 03:29N 47°44' W 003°22'0 0.0
2018-Jun-13 02:59N 47°44' W 003°22'0 0.0
2018-Jun-13 02:29N 47°44' W 003°22'0 0.0
2018-Jun-13 01:59N 47°44' W 003°22'0 0.0
2018-Jun-13 01:29N 47°44' W 003°22'0 0.1
2018-Jun-13 00:59N 47°44' W 003°22'0 0.0
2018-Jun-13 00:29N 47°44' W 003°22'2 3.8
2018-Jun-13 00:00N 47°42' W 003°22'5 8.8
2018-Jun-12 23:29N 47°37' W 003°23'4 8.7
2018-Jun-12 23:00N 47°33' W 003°25'4 8.9
2018-Jun-12 22:30N 47°29' W 003°27'4 8.5
2018-Jun-12 21:59N 47°26' W 003°31'8 0.4
2018-Jun-12 00:49N 47°33' W 003°25'3 8.2
2018-Jun-12 00:30N 47°35' W 003°23'4 8.4
2018-Jun-12 00:00N 47°39' W 003°22'4 8.7
2018-Jun-11 23:30N 47°44' W 003°22'0 0.3
2018-Jun-11 22:59N 47°44' W 003°22'4 8.0
2018-Jun-11 22:30N 47°41' W 003°26'5 8.7
2018-Jun-11 21:58N 47°40' W 003°32'  

Dump ship's entire track history